sensor_id;sensor_type;location;lat;lon;timestamp;P1;durP1;ratioP1;P2;durP2;ratioP2
79076;SDS011;68477;42.698;23.342;2023-04-19T00:00:51;4.13;;;1.85;;
79076;SDS011;68477;42.698;23.342;2023-04-19T00:03:16;3.40;;;1.80;;
79076;SDS011;68477;42.698;23.342;2023-04-19T00:05:42;3.05;;;1.80;;
79076;SDS011;68477;42.698;23.342;2023-04-19T00:08:08;7.97;;;1.60;;
79076;SDS011;68477;42.698;23.342;2023-04-19T00:10:34;4.20;;;2.30;;
79076;SDS011;68477;42.698;23.342;2023-04-19T00:13:03;2.67;;;1.70;;
79076;SDS011;68477;42.698;23.342;2023-04-19T00:15:29;6.20;;;1.90;;
79076;SDS011;68477;42.698;23.342;2023-04-19T00:17:55;9.85;;;1.80;;
79076;SDS011;68477;42.698;23.342;2023-04-19T00:20:20;2.72;;;1.60;;
79076;SDS011;68477;42.698;23.342;2023-04-19T00:22:46;3.33;;;1.70;;
79076;SDS011;68477;42.698;23.342;2023-04-19T00:25:11;2.83;;;1.65;;
79076;SDS011;68477;42.698;23.342;2023-04-19T00:27:37;2.75;;;1.60;;
79076;SDS011;68477;42.698;23.342;2023-04-19T00:30:02;3.00;;;1.60;;
79076;SDS011;68477;42.698;23.342;2023-04-19T00:32:28;2.70;;;1.73;;
79076;SDS011;68477;42.698;23.342;2023-04-19T00:34:55;3.15;;;1.55;;
79076;SDS011;68477;42.698;23.342;2023-04-19T00:37:20;4.50;;;1.88;;
79076;SDS011;68477;42.698;23.342;2023-04-19T00:39:46;3.83;;;2.00;;
79076;SDS011;68477;42.698;23.342;2023-04-19T00:42:11;4.68;;;1.60;;
79076;SDS011;68477;42.698;23.342;2023-04-19T00:44:37;3.53;;;1.92;;
79076;SDS011;68477;42.698;23.342;2023-04-19T00:47:02;4.18;;;1.85;;
79076;SDS011;68477;42.698;23.342;2023-04-19T00:49:29;3.95;;;1.80;;
79076;SDS011;68477;42.698;23.342;2023-04-19T00:51:54;4.07;;;2.00;;
79076;SDS011;68477;42.698;23.342;2023-04-19T00:54:20;3.50;;;1.92;;
79076;SDS011;68477;42.698;23.342;2023-04-19T00:56:46;4.05;;;1.95;;
79076;SDS011;68477;42.698;23.342;2023-04-19T00:59:11;3.80;;;1.83;;
79076;SDS011;68477;42.698;23.342;2023-04-19T01:01:39;5.75;;;1.75;;
79076;SDS011;68477;42.698;23.342;2023-04-19T01:04:05;4.15;;;2.08;;
79076;SDS011;68477;42.698;23.342;2023-04-19T01:06:32;4.32;;;1.90;;
79076;SDS011;68477;42.698;23.342;2023-04-19T01:08:59;2.95;;;2.08;;
79076;SDS011;68477;42.698;23.342;2023-04-19T01:11:25;5.68;;;2.05;;
79076;SDS011;68477;42.698;23.342;2023-04-19T01:13:51;4.25;;;2.50;;
79076;SDS011;68477;42.698;23.342;2023-04-19T01:16:17;3.65;;;2.08;;
79076;SDS011;68477;42.698;23.342;2023-04-19T01:18:43;4.88;;;2.53;;
79076;SDS011;68477;42.698;23.342;2023-04-19T01:21:08;4.18;;;2.60;;
79076;SDS011;68477;42.698;23.342;2023-04-19T01:23:36;5.10;;;2.50;;
79076;SDS011;68477;42.698;23.342;2023-04-19T01:26:03;3.67;;;2.30;;
79076;SDS011;68477;42.698;23.342;2023-04-19T01:28:29;4.53;;;2.10;;
79076;SDS011;68477;42.698;23.342;2023-04-19T01:30:55;3.83;;;2.45;;
79076;SDS011;68477;42.698;23.342;2023-04-19T01:33:20;3.22;;;2.17;;
79076;SDS011;68477;42.698;23.342;2023-04-19T01:35:46;3.03;;;2.20;;
79076;SDS011;68477;42.698;23.342;2023-04-19T01:38:13;4.63;;;2.30;;
79076;SDS011;68477;42.698;23.342;2023-04-19T01:40:39;4.57;;;2.35;;
79076;SDS011;68477;42.698;23.342;2023-04-19T01:43:05;5.55;;;2.15;;
79076;SDS011;68477;42.698;23.342;2023-04-19T01:45:31;9.55;;;2.20;;
79076;SDS011;68477;42.698;23.342;2023-04-19T01:47:58;3.65;;;1.98;;
79076;SDS011;68477;42.698;23.342;2023-04-19T01:50:25;5.45;;;2.20;;
79076;SDS011;68477;42.698;23.342;2023-04-19T01:52:51;4.35;;;2.40;;
79076;SDS011;68477;42.698;23.342;2023-04-19T01:55:16;4.75;;;2.60;;
79076;SDS011;68477;42.698;23.342;2023-04-19T01:57:42;4.05;;;2.22;;
79076;SDS011;68477;42.698;23.342;2023-04-19T02:00:07;5.53;;;2.30;;
79076;SDS011;68477;42.698;23.342;2023-04-19T02:02:35;5.90;;;2.72;;
79076;SDS011;68477;42.698;23.342;2023-04-19T02:05:05;4.50;;;2.88;;
79076;SDS011;68477;42.698;23.342;2023-04-19T02:07:30;3.72;;;2.30;;
79076;SDS011;68477;42.698;23.342;2023-04-19T02:09:56;3.80;;;2.30;;
79076;SDS011;68477;42.698;23.342;2023-04-19T02:12:25;4.88;;;2.45;;
79076;SDS011;68477;42.698;23.342;2023-04-19T02:14:52;3.53;;;2.50;;
79076;SDS011;68477;42.698;23.342;2023-04-19T02:17:21;6.28;;;3.45;;
79076;SDS011;68477;42.698;23.342;2023-04-19T02:19:47;5.10;;;2.67;;
79076;SDS011;68477;42.698;23.342;2023-04-19T02:22:13;4.00;;;2.53;;
79076;SDS011;68477;42.698;23.342;2023-04-19T02:24:38;6.63;;;2.80;;
79076;SDS011;68477;42.698;23.342;2023-04-19T02:27:03;5.20;;;2.50;;
79076;SDS011;68477;42.698;23.342;2023-04-19T02:29:31;4.97;;;2.70;;
79076;SDS011;68477;42.698;23.342;2023-04-19T02:31:57;4.38;;;2.42;;
79076;SDS011;68477;42.698;23.342;2023-04-19T02:34:22;5.28;;;3.40;;
79076;SDS011;68477;42.698;23.342;2023-04-19T02:36:48;3.88;;;2.65;;
79076;SDS011;68477;42.698;23.342;2023-04-19T02:39:13;4.50;;;2.75;;
79076;SDS011;68477;42.698;23.342;2023-04-19T02:41:38;6.20;;;2.92;;
79076;SDS011;68477;42.698;23.342;2023-04-19T02:44:05;4.03;;;2.90;;
79076;SDS011;68477;42.698;23.342;2023-04-19T02:46:30;3.88;;;2.88;;
79076;SDS011;68477;42.698;23.342;2023-04-19T02:48:56;5.43;;;3.13;;
79076;SDS011;68477;42.698;23.342;2023-04-19T02:51:21;4.93;;;3.00;;
79076;SDS011;68477;42.698;23.342;2023-04-19T02:53:46;5.85;;;3.20;;
79076;SDS011;68477;42.698;23.342;2023-04-19T02:56:12;5.93;;;2.97;;
79076;SDS011;68477;42.698;23.342;2023-04-19T02:58:37;4.82;;;3.38;;
79076;SDS011;68477;42.698;23.342;2023-04-19T03:01:03;4.07;;;2.90;;
79076;SDS011;68477;42.698;23.342;2023-04-19T03:03:28;6.13;;;3.00;;
79076;SDS011;68477;42.698;23.342;2023-04-19T03:05:54;7.22;;;3.60;;
79076;SDS011;68477;42.698;23.342;2023-04-19T03:08:20;4.90;;;3.20;;
79076;SDS011;68477;42.698;23.342;2023-04-19T03:10:45;8.00;;;3.40;;
79076;SDS011;68477;42.698;23.342;2023-04-19T03:13:10;5.97;;;3.30;;
79076;SDS011;68477;42.698;23.342;2023-04-19T03:15:36;5.00;;;2.92;;
79076;SDS011;68477;42.698;23.342;2023-04-19T03:18:01;4.88;;;2.85;;
79076;SDS011;68477;42.698;23.342;2023-04-19T03:20:27;6.00;;;3.65;;
79076;SDS011;68477;42.698;23.342;2023-04-19T03:22:52;7.72;;;4.10;;
79076;SDS011;68477;42.698;23.342;2023-04-19T03:25:17;6.43;;;3.42;;
79076;SDS011;68477;42.698;23.342;2023-04-19T03:27:43;8.35;;;4.40;;
79076;SDS011;68477;42.698;23.342;2023-04-19T03:30:11;5.65;;;3.70;;
79076;SDS011;68477;42.698;23.342;2023-04-19T03:32:37;6.32;;;4.00;;
79076;SDS011;68477;42.698;23.342;2023-04-19T03:35:03;9.13;;;3.80;;
79076;SDS011;68477;42.698;23.342;2023-04-19T03:37:28;6.55;;;3.58;;
79076;SDS011;68477;42.698;23.342;2023-04-19T03:39:54;6.03;;;3.60;;
79076;SDS011;68477;42.698;23.342;2023-04-19T03:42:19;7.18;;;3.70;;
79076;SDS011;68477;42.698;23.342;2023-04-19T03:44:45;5.40;;;3.42;;
79076;SDS011;68477;42.698;23.342;2023-04-19T03:47:10;4.85;;;3.25;;
79076;SDS011;68477;42.698;23.342;2023-04-19T03:49:36;6.40;;;3.92;;
79076;SDS011;68477;42.698;23.342;2023-04-19T03:52:01;5.15;;;3.35;;
79076;SDS011;68477;42.698;23.342;2023-04-19T03:54:27;5.30;;;3.40;;
79076;SDS011;68477;42.698;23.342;2023-04-19T03:56:52;7.43;;;3.58;;
79076;SDS011;68477;42.698;23.342;2023-04-19T03:59:17;5.22;;;3.47;;
79076;SDS011;68477;42.698;23.342;2023-04-19T04:01:43;6.50;;;3.85;;
79076;SDS011;68477;42.698;23.342;2023-04-19T04:04:10;7.35;;;3.80;;
79076;SDS011;68477;42.698;23.342;2023-04-19T04:06:36;6.80;;;3.75;;
79076;SDS011;68477;42.698;23.342;2023-04-19T04:09:01;6.25;;;3.40;;
79076;SDS011;68477;42.698;23.342;2023-04-19T04:11:27;8.07;;;4.10;;
79076;SDS011;68477;42.698;23.342;2023-04-19T04:13:54;5.97;;;4.03;;
79076;SDS011;68477;42.698;23.342;2023-04-19T04:16:20;5.53;;;3.75;;
79076;SDS011;68477;42.698;23.342;2023-04-19T04:18:45;6.72;;;3.90;;
79076;SDS011;68477;42.698;23.342;2023-04-19T04:21:11;7.30;;;3.97;;
79076;SDS011;68477;42.698;23.342;2023-04-19T04:23:36;6.82;;;4.10;;
79076;SDS011;68477;42.698;23.342;2023-04-19T04:26:02;6.38;;;4.13;;
79076;SDS011;68477;42.698;23.342;2023-04-19T04:28:29;5.63;;;3.63;;
79076;SDS011;68477;42.698;23.342;2023-04-19T04:30:56;5.60;;;3.78;;
79076;SDS011;68477;42.698;23.342;2023-04-19T04:33:25;6.95;;;3.58;;
79076;SDS011;68477;42.698;23.342;2023-04-19T04:35:54;6.93;;;4.45;;
79076;SDS011;68477;42.698;23.342;2023-04-19T04:38:21;6.25;;;4.43;;
79076;SDS011;68477;42.698;23.342;2023-04-19T04:40:51;8.27;;;4.75;;
79076;SDS011;68477;42.698;23.342;2023-04-19T04:43:18;5.90;;;3.72;;
79076;SDS011;68477;42.698;23.342;2023-04-19T04:45:45;7.03;;;4.15;;
79076;SDS011;68477;42.698;23.342;2023-04-19T04:48:10;8.30;;;4.57;;
79076;SDS011;68477;42.698;23.342;2023-04-19T04:50:36;6.05;;;4.03;;
79076;SDS011;68477;42.698;23.342;2023-04-19T04:53:01;6.55;;;4.30;;
79076;SDS011;68477;42.698;23.342;2023-04-19T04:55:27;6.55;;;4.10;;
79076;SDS011;68477;42.698;23.342;2023-04-19T04:57:52;6.63;;;3.60;;
79076;SDS011;68477;42.698;23.342;2023-04-19T05:00:18;7.15;;;4.68;;
79076;SDS011;68477;42.698;23.342;2023-04-19T05:02:44;8.18;;;4.70;;
79076;SDS011;68477;42.698;23.342;2023-04-19T05:05:09;8.52;;;4.30;;
79076;SDS011;68477;42.698;23.342;2023-04-19T05:07:39;9.32;;;4.45;;
79076;SDS011;68477;42.698;23.342;2023-04-19T05:10:05;8.85;;;4.00;;
79076;SDS011;68477;42.698;23.342;2023-04-19T05:12:31;8.18;;;4.22;;
79076;SDS011;68477;42.698;23.342;2023-04-19T05:14:56;5.80;;;3.75;;
79076;SDS011;68477;42.698;23.342;2023-04-19T05:17:22;6.60;;;4.07;;
79076;SDS011;68477;42.698;23.342;2023-04-19T05:19:47;6.60;;;3.92;;
79076;SDS011;68477;42.698;23.342;2023-04-19T05:22:13;5.60;;;3.80;;
79076;SDS011;68477;42.698;23.342;2023-04-19T05:24:38;10.10;;;4.43;;
79076;SDS011;68477;42.698;23.342;2023-04-19T05:27:03;6.35;;;4.60;;
79076;SDS011;68477;42.698;23.342;2023-04-19T05:29:30;6.50;;;4.15;;
79076;SDS011;68477;42.698;23.342;2023-04-19T05:31:57;8.75;;;4.20;;
79076;SDS011;68477;42.698;23.342;2023-04-19T05:34:22;5.90;;;4.13;;
79076;SDS011;68477;42.698;23.342;2023-04-19T05:36:48;6.97;;;4.45;;
79076;SDS011;68477;42.698;23.342;2023-04-19T05:39:14;13.45;;;7.10;;
79076;SDS011;68477;42.698;23.342;2023-04-19T05:41:39;7.72;;;4.60;;
79076;SDS011;68477;42.698;23.342;2023-04-19T05:44:05;7.32;;;4.85;;
79076;SDS011;68477;42.698;23.342;2023-04-19T05:46:31;7.50;;;4.45;;
79076;SDS011;68477;42.698;23.342;2023-04-19T05:48:56;9.05;;;4.85;;
79076;SDS011;68477;42.698;23.342;2023-04-19T05:51:21;7.85;;;4.32;;
79076;SDS011;68477;42.698;23.342;2023-04-19T05:53:47;7.38;;;4.50;;
79076;SDS011;68477;42.698;23.342;2023-04-19T05:56:12;8.10;;;4.60;;
79076;SDS011;68477;42.698;23.342;2023-04-19T05:58:38;7.22;;;3.92;;
79076;SDS011;68477;42.698;23.342;2023-04-19T06:01:03;6.25;;;4.50;;
79076;SDS011;68477;42.698;23.342;2023-04-19T06:03:30;7.30;;;4.72;;
79076;SDS011;68477;42.698;23.342;2023-04-19T06:05:55;7.60;;;4.45;;
79076;SDS011;68477;42.698;23.342;2023-04-19T06:08:21;6.80;;;4.40;;
79076;SDS011;68477;42.698;23.342;2023-04-19T06:10:46;7.53;;;4.32;;
79076;SDS011;68477;42.698;23.342;2023-04-19T06:13:13;8.43;;;4.75;;
79076;SDS011;68477;42.698;23.342;2023-04-19T06:15:39;7.45;;;4.47;;
79076;SDS011;68477;42.698;23.342;2023-04-19T06:18:05;7.28;;;4.43;;
79076;SDS011;68477;42.698;23.342;2023-04-19T06:20:37;7.57;;;4.43;;
79076;SDS011;68477;42.698;23.342;2023-04-19T06:23:03;8.68;;;4.50;;
79076;SDS011;68477;42.698;23.342;2023-04-19T06:25:29;8.77;;;5.03;;
79076;SDS011;68477;42.698;23.342;2023-04-19T06:27:55;7.75;;;4.28;;
79076;SDS011;68477;42.698;23.342;2023-04-19T06:30:21;8.73;;;4.03;;
79076;SDS011;68477;42.698;23.342;2023-04-19T06:32:46;7.45;;;4.30;;
79076;SDS011;68477;42.698;23.342;2023-04-19T06:35:12;6.55;;;4.30;;
79076;SDS011;68477;42.698;23.342;2023-04-19T06:37:38;6.43;;;4.60;;
79076;SDS011;68477;42.698;23.342;2023-04-19T06:40:03;6.70;;;4.85;;
79076;SDS011;68477;42.698;23.342;2023-04-19T06:42:31;8.88;;;4.35;;
79076;SDS011;68477;42.698;23.342;2023-04-19T06:44:56;10.70;;;4.50;;
79076;SDS011;68477;42.698;23.342;2023-04-19T06:47:21;6.53;;;4.07;;
79076;SDS011;68477;42.698;23.342;2023-04-19T06:49:47;9.15;;;4.78;;
79076;SDS011;68477;42.698;23.342;2023-04-19T06:52:12;7.85;;;4.32;;
79076;SDS011;68477;42.698;23.342;2023-04-19T06:54:38;7.55;;;4.53;;
79076;SDS011;68477;42.698;23.342;2023-04-19T06:57:03;8.13;;;4.50;;
79076;SDS011;68477;42.698;23.342;2023-04-19T06:59:29;7.63;;;3.92;;
79076;SDS011;68477;42.698;23.342;2023-04-19T07:01:56;7.90;;;4.10;;
79076;SDS011;68477;42.698;23.342;2023-04-19T07:04:22;5.15;;;3.78;;
79076;SDS011;68477;42.698;23.342;2023-04-19T07:06:48;8.57;;;4.25;;
79076;SDS011;68477;42.698;23.342;2023-04-19T07:09:14;6.00;;;3.85;;
79076;SDS011;68477;42.698;23.342;2023-04-19T07:11:39;7.63;;;3.97;;
79076;SDS011;68477;42.698;23.342;2023-04-19T07:14:05;6.65;;;4.03;;
79076;SDS011;68477;42.698;23.342;2023-04-19T07:16:31;5.53;;;3.05;;
79076;SDS011;68477;42.698;23.342;2023-04-19T07:18:56;9.48;;;5.10;;
79076;SDS011;68477;42.698;23.342;2023-04-19T07:21:22;7.85;;;4.65;;
79076;SDS011;68477;42.698;23.342;2023-04-19T07:23:50;8.70;;;4.55;;
79076;SDS011;68477;42.698;23.342;2023-04-19T07:26:16;8.50;;;4.15;;
79076;SDS011;68477;42.698;23.342;2023-04-19T07:28:41;8.45;;;4.55;;
79076;SDS011;68477;42.698;23.342;2023-04-19T07:31:06;13.30;;;5.40;;
79076;SDS011;68477;42.698;23.342;2023-04-19T07:33:32;7.53;;;4.32;;
79076;SDS011;68477;42.698;23.342;2023-04-19T07:35:58;6.07;;;3.88;;
79076;SDS011;68477;42.698;23.342;2023-04-19T07:38:23;7.43;;;3.90;;
79076;SDS011;68477;42.698;23.342;2023-04-19T07:40:49;6.55;;;4.00;;
79076;SDS011;68477;42.698;23.342;2023-04-19T07:43:14;8.13;;;4.53;;
79076;SDS011;68477;42.698;23.342;2023-04-19T07:45:41;5.57;;;3.88;;
79076;SDS011;68477;42.698;23.342;2023-04-19T07:48:06;9.88;;;4.68;;
79076;SDS011;68477;42.698;23.342;2023-04-19T07:50:32;9.20;;;4.03;;
79076;SDS011;68477;42.698;23.342;2023-04-19T07:52:57;8.88;;;4.03;;
79076;SDS011;68477;42.698;23.342;2023-04-19T07:55:23;8.52;;;4.03;;
79076;SDS011;68477;42.698;23.342;2023-04-19T07:57:48;5.75;;;3.75;;
79076;SDS011;68477;42.698;23.342;2023-04-19T08:00:14;7.57;;;4.10;;
79076;SDS011;68477;42.698;23.342;2023-04-19T08:02:45;8.85;;;5.18;;
79076;SDS011;68477;42.698;23.342;2023-04-19T08:05:11;8.75;;;5.13;;
79076;SDS011;68477;42.698;23.342;2023-04-19T08:07:37;11.05;;;5.00;;
79076;SDS011;68477;42.698;23.342;2023-04-19T08:10:05;6.32;;;3.53;;
79076;SDS011;68477;42.698;23.342;2023-04-19T08:12:32;8.23;;;3.70;;
79076;SDS011;68477;42.698;23.342;2023-04-19T08:14:58;8.55;;;4.30;;
79076;SDS011;68477;42.698;23.342;2023-04-19T08:17:23;6.85;;;3.30;;
79076;SDS011;68477;42.698;23.342;2023-04-19T08:19:49;5.60;;;3.60;;
79076;SDS011;68477;42.698;23.342;2023-04-19T08:22:15;6.25;;;3.40;;
79076;SDS011;68477;42.698;23.342;2023-04-19T08:24:42;9.68;;;3.95;;
79076;SDS011;68477;42.698;23.342;2023-04-19T08:27:08;5.60;;;2.75;;
79076;SDS011;68477;42.698;23.342;2023-04-19T08:29:34;6.20;;;3.75;;
79076;SDS011;68477;42.698;23.342;2023-04-19T08:32:00;6.63;;;3.30;;
79076;SDS011;68477;42.698;23.342;2023-04-19T08:34:26;6.05;;;3.58;;
79076;SDS011;68477;42.698;23.342;2023-04-19T08:36:51;5.72;;;3.30;;
79076;SDS011;68477;42.698;23.342;2023-04-19T08:39:17;7.45;;;3.50;;
79076;SDS011;68477;42.698;23.342;2023-04-19T08:41:43;6.38;;;3.40;;
79076;SDS011;68477;42.698;23.342;2023-04-19T08:44:11;5.63;;;3.45;;
79076;SDS011;68477;42.698;23.342;2023-04-19T08:46:38;5.63;;;3.50;;
79076;SDS011;68477;42.698;23.342;2023-04-19T08:49:06;5.13;;;3.40;;
79076;SDS011;68477;42.698;23.342;2023-04-19T08:51:33;5.50;;;3.95;;
79076;SDS011;68477;42.698;23.342;2023-04-19T08:53:59;5.43;;;3.67;;
79076;SDS011;68477;42.698;23.342;2023-04-19T08:56:28;5.63;;;3.42;;
79076;SDS011;68477;42.698;23.342;2023-04-19T08:58:55;7.78;;;3.42;;
79076;SDS011;68477;42.698;23.342;2023-04-19T09:01:21;5.68;;;3.28;;
79076;SDS011;68477;42.698;23.342;2023-04-19T09:03:46;6.03;;;3.97;;
79076;SDS011;68477;42.698;23.342;2023-04-19T09:06:12;6.35;;;2.78;;
79076;SDS011;68477;42.698;23.342;2023-04-19T09:08:38;4.90;;;2.72;;
79076;SDS011;68477;42.698;23.342;2023-04-19T09:11:05;4.80;;;2.88;;
79076;SDS011;68477;42.698;23.342;2023-04-19T09:13:30;5.60;;;3.22;;
79076;SDS011;68477;42.698;23.342;2023-04-19T09:15:56;11.30;;;3.70;;
79076;SDS011;68477;42.698;23.342;2023-04-19T09:18:24;6.85;;;3.35;;
79076;SDS011;68477;42.698;23.342;2023-04-19T09:20:51;4.70;;;2.90;;
79076;SDS011;68477;42.698;23.342;2023-04-19T09:23:23;8.38;;;2.85;;
79076;SDS011;68477;42.698;23.342;2023-04-19T09:25:55;4.95;;;3.13;;
79076;SDS011;68477;42.698;23.342;2023-04-19T09:28:24;6.68;;;3.17;;
79076;SDS011;68477;42.698;23.342;2023-04-19T09:30:50;4.07;;;2.50;;
79076;SDS011;68477;42.698;23.342;2023-04-19T09:33:31;4.40;;;2.55;;
79076;SDS011;68477;42.698;23.342;2023-04-19T09:36:03;4.68;;;2.83;;
79076;SDS011;68477;42.698;23.342;2023-04-19T09:38:29;4.95;;;2.95;;
79076;SDS011;68477;42.698;23.342;2023-04-19T09:41:05;5.57;;;3.03;;
79076;SDS011;68477;42.698;23.342;2023-04-19T09:43:31;4.40;;;2.92;;
79076;SDS011;68477;42.698;23.342;2023-04-19T09:45:57;4.15;;;2.75;;
79076;SDS011;68477;42.698;23.342;2023-04-19T09:48:22;5.28;;;2.90;;
79076;SDS011;68477;42.698;23.342;2023-04-19T09:50:52;4.00;;;2.55;;
79076;SDS011;68477;42.698;23.342;2023-04-19T09:53:19;3.75;;;2.45;;
79076;SDS011;68477;42.698;23.342;2023-04-19T09:55:46;4.35;;;2.80;;
79076;SDS011;68477;42.698;23.342;2023-04-19T09:58:12;5.20;;;2.58;;
79076;SDS011;68477;42.698;23.342;2023-04-19T10:00:44;4.75;;;2.63;;
79076;SDS011;68477;42.698;23.342;2023-04-19T10:03:12;7.40;;;2.58;;
79076;SDS011;68477;42.698;23.342;2023-04-19T10:05:41;6.32;;;2.85;;
79076;SDS011;68477;42.698;23.342;2023-04-19T10:08:08;6.68;;;3.08;;
79076;SDS011;68477;42.698;23.342;2023-04-19T10:10:36;3.63;;;2.42;;
79076;SDS011;68477;42.698;23.342;2023-04-19T10:13:06;3.78;;;2.60;;
79076;SDS011;68477;42.698;23.342;2023-04-19T10:15:40;3.90;;;2.35;;
79076;SDS011;68477;42.698;23.342;2023-04-19T10:18:07;4.80;;;2.55;;
79076;SDS011;68477;42.698;23.342;2023-04-19T10:20:54;4.32;;;2.58;;
79076;SDS011;68477;42.698;23.342;2023-04-19T10:23:25;5.88;;;2.88;;
79076;SDS011;68477;42.698;23.342;2023-04-19T10:25:57;5.82;;;3.30;;
79076;SDS011;68477;42.698;23.342;2023-04-19T10:28:23;5.07;;;3.10;;
79076;SDS011;68477;42.698;23.342;2023-04-19T10:30:52;3.95;;;2.47;;
79076;SDS011;68477;42.698;23.342;2023-04-19T10:33:26;3.85;;;2.20;;
79076;SDS011;68477;42.698;23.342;2023-04-19T10:35:56;3.05;;;2.10;;
79076;SDS011;68477;42.698;23.342;2023-04-19T10:38:39;3.83;;;2.40;;
79076;SDS011;68477;42.698;23.342;2023-04-19T10:41:07;3.90;;;2.28;;
79076;SDS011;68477;42.698;23.342;2023-04-19T10:43:36;3.63;;;2.65;;
79076;SDS011;68477;42.698;23.342;2023-04-19T10:46:06;3.17;;;2.03;;
79076;SDS011;68477;42.698;23.342;2023-04-19T10:48:36;4.68;;;2.70;;
79076;SDS011;68477;42.698;23.342;2023-04-19T10:51:39;3.50;;;2.25;;
79076;SDS011;68477;42.698;23.342;2023-04-19T10:54:03;4.85;;;3.13;;
79076;SDS011;68477;42.698;23.342;2023-04-19T11:01:35;5.72;;;2.83;;
79076;SDS011;68477;42.698;23.342;2023-04-19T11:07:13;3.60;;;2.20;;
79076;SDS011;68477;42.698;23.342;2023-04-19T11:09:42;5.38;;;2.60;;
79076;SDS011;68477;42.698;23.342;2023-04-19T11:12:10;3.35;;;2.50;;
79076;SDS011;68477;42.698;23.342;2023-04-19T11:14:41;3.70;;;2.60;;
79076;SDS011;68477;42.698;23.342;2023-04-19T11:17:17;5.40;;;2.60;;
79076;SDS011;68477;42.698;23.342;2023-04-19T11:19:55;3.13;;;2.15;;
79076;SDS011;68477;42.698;23.342;2023-04-19T11:22:28;5.05;;;2.50;;
79076;SDS011;68477;42.698;23.342;2023-04-19T11:25:31;3.50;;;2.40;;
79076;SDS011;68477;42.698;23.342;2023-04-19T11:27:52;3.97;;;2.40;;
79076;SDS011;68477;42.698;23.342;2023-04-19T11:30:21;4.07;;;2.42;;
79076;SDS011;68477;42.698;23.342;2023-04-19T11:32:53;3.10;;;2.20;;
79076;SDS011;68477;42.698;23.342;2023-04-19T11:35:20;3.92;;;2.58;;
79076;SDS011;68477;42.698;23.342;2023-04-19T11:37:47;5.82;;;2.47;;
79076;SDS011;68477;42.698;23.342;2023-04-19T11:40:13;4.50;;;2.50;;
79076;SDS011;68477;42.698;23.342;2023-04-19T11:42:40;3.67;;;2.55;;
79076;SDS011;68477;42.698;23.342;2023-04-19T11:45:06;3.30;;;2.42;;
79076;SDS011;68477;42.698;23.342;2023-04-19T11:47:33;2.90;;;2.20;;
79076;SDS011;68477;42.698;23.342;2023-04-19T11:50:29;3.58;;;2.58;;
79076;SDS011;68477;42.698;23.342;2023-04-19T11:53:08;3.60;;;2.55;;
79076;SDS011;68477;42.698;23.342;2023-04-19T11:55:35;3.38;;;2.20;;
79076;SDS011;68477;42.698;23.342;2023-04-19T11:58:01;4.13;;;2.63;;
79076;SDS011;68477;42.698;23.342;2023-04-19T12:00:27;3.65;;;2.30;;
79076;SDS011;68477;42.698;23.342;2023-04-19T12:02:53;4.28;;;2.33;;
79076;SDS011;68477;42.698;23.342;2023-04-19T12:05:19;3.63;;;2.13;;
79076;SDS011;68477;42.698;23.342;2023-04-19T12:08:00;3.30;;;2.40;;
79076;SDS011;68477;42.698;23.342;2023-04-19T12:10:27;3.00;;;2.03;;
79076;SDS011;68477;42.698;23.342;2023-04-19T12:12:52;3.58;;;2.05;;
79076;SDS011;68477;42.698;23.342;2023-04-19T12:15:18;3.63;;;2.50;;
79076;SDS011;68477;42.698;23.342;2023-04-19T12:17:59;3.80;;;2.45;;
79076;SDS011;68477;42.698;23.342;2023-04-19T12:22:59;5.30;;;2.53;;
79076;SDS011;68477;42.698;23.342;2023-04-19T12:25:31;6.50;;;2.60;;
79076;SDS011;68477;42.698;23.342;2023-04-19T12:27:58;5.70;;;2.28;;
79076;SDS011;68477;42.698;23.342;2023-04-19T12:30:25;2.40;;;1.67;;
79076;SDS011;68477;42.698;23.342;2023-04-19T12:32:51;4.63;;;2.38;;
79076;SDS011;68477;42.698;23.342;2023-04-19T12:35:23;5.00;;;2.38;;
79076;SDS011;68477;42.698;23.342;2023-04-19T12:37:51;4.35;;;2.20;;
79076;SDS011;68477;42.698;23.342;2023-04-19T12:40:18;3.72;;;2.28;;
79076;SDS011;68477;42.698;23.342;2023-04-19T12:42:43;4.47;;;2.63;;
79076;SDS011;68477;42.698;23.342;2023-04-19T12:45:09;8.50;;;3.67;;
79076;SDS011;68477;42.698;23.342;2023-04-19T12:47:35;4.93;;;3.05;;
79076;SDS011;68477;42.698;23.342;2023-04-19T12:50:01;4.75;;;3.17;;
79076;SDS011;68477;42.698;23.342;2023-04-19T12:52:26;6.80;;;3.50;;
79076;SDS011;68477;42.698;23.342;2023-04-19T12:54:52;4.82;;;3.15;;
79076;SDS011;68477;42.698;23.342;2023-04-19T12:57:17;7.05;;;4.35;;
79076;SDS011;68477;42.698;23.342;2023-04-19T12:59:43;6.20;;;3.97;;
79076;SDS011;68477;42.698;23.342;2023-04-19T13:02:08;7.57;;;3.13;;
79076;SDS011;68477;42.698;23.342;2023-04-19T13:04:34;5.00;;;3.30;;
79076;SDS011;68477;42.698;23.342;2023-04-19T13:07:00;3.65;;;2.10;;
79076;SDS011;68477;42.698;23.342;2023-04-19T13:09:26;3.97;;;2.17;;
79076;SDS011;68477;42.698;23.342;2023-04-19T13:11:53;3.03;;;1.70;;
79076;SDS011;68477;42.698;23.342;2023-04-19T13:14:19;5.00;;;2.30;;
79076;SDS011;68477;42.698;23.342;2023-04-19T13:16:46;4.47;;;2.15;;
79076;SDS011;68477;42.698;23.342;2023-04-19T13:19:11;4.07;;;2.60;;
79076;SDS011;68477;42.698;23.342;2023-04-19T13:21:37;8.60;;;2.30;;
79076;SDS011;68477;42.698;23.342;2023-04-19T13:24:02;4.32;;;2.15;;
79076;SDS011;68477;42.698;23.342;2023-04-19T13:26:28;3.88;;;2.13;;
79076;SDS011;68477;42.698;23.342;2023-04-19T13:28:53;3.88;;;2.20;;
79076;SDS011;68477;42.698;23.342;2023-04-19T13:31:19;6.22;;;2.33;;
79076;SDS011;68477;42.698;23.342;2023-04-19T13:33:44;4.35;;;2.33;;
79076;SDS011;68477;42.698;23.342;2023-04-19T13:36:10;3.58;;;2.15;;
79076;SDS011;68477;42.698;23.342;2023-04-19T13:38:36;3.25;;;2.17;;
79076;SDS011;68477;42.698;23.342;2023-04-19T13:41:01;6.78;;;2.40;;
79076;SDS011;68477;42.698;23.342;2023-04-19T13:43:27;7.18;;;2.20;;
79076;SDS011;68477;42.698;23.342;2023-04-19T13:45:53;5.03;;;2.20;;
79076;SDS011;68477;42.698;23.342;2023-04-19T13:48:18;6.25;;;2.30;;
79076;SDS011;68477;42.698;23.342;2023-04-19T13:50:44;3.30;;;2.10;;
79076;SDS011;68477;42.698;23.342;2023-04-19T13:53:09;7.07;;;2.63;;
79076;SDS011;68477;42.698;23.342;2023-04-19T13:55:35;4.78;;;2.40;;
79076;SDS011;68477;42.698;23.342;2023-04-19T13:58:00;3.97;;;2.38;;
79076;SDS011;68477;42.698;23.342;2023-04-19T14:00:26;4.15;;;2.38;;
79076;SDS011;68477;42.698;23.342;2023-04-19T14:02:53;5.88;;;2.22;;
79076;SDS011;68477;42.698;23.342;2023-04-19T14:05:19;5.97;;;2.80;;
79076;SDS011;68477;42.698;23.342;2023-04-19T14:07:44;6.78;;;2.80;;
79076;SDS011;68477;42.698;23.342;2023-04-19T14:10:10;3.90;;;2.60;;
79076;SDS011;68477;42.698;23.342;2023-04-19T14:12:35;6.03;;;3.03;;
79076;SDS011;68477;42.698;23.342;2023-04-19T14:15:01;7.55;;;2.85;;
79076;SDS011;68477;42.698;23.342;2023-04-19T14:17:26;8.27;;;3.25;;
79076;SDS011;68477;42.698;23.342;2023-04-19T14:19:52;4.97;;;2.40;;
79076;SDS011;68477;42.698;23.342;2023-04-19T14:22:17;3.58;;;2.35;;
79076;SDS011;68477;42.698;23.342;2023-04-19T14:24:43;3.90;;;2.13;;
79076;SDS011;68477;42.698;23.342;2023-04-19T14:27:10;4.15;;;2.47;;
79076;SDS011;68477;42.698;23.342;2023-04-19T14:29:35;3.72;;;2.08;;
79076;SDS011;68477;42.698;23.342;2023-04-19T14:32:01;3.80;;;2.30;;
79076;SDS011;68477;42.698;23.342;2023-04-19T14:34:27;4.10;;;1.60;;
79076;SDS011;68477;42.698;23.342;2023-04-19T14:36:52;3.13;;;1.92;;
79076;SDS011;68477;42.698;23.342;2023-04-19T14:39:17;5.65;;;1.90;;
79076;SDS011;68477;42.698;23.342;2023-04-19T14:41:43;3.88;;;2.03;;